createdAt,value
2016-07-04T16:22:27.365Z,999.16
2016-07-04T16:23:27.363Z,999.17
2016-07-04T16:24:27.381Z,999.18
2016-07-04T16:25:27.393Z,999.18
2016-07-04T16:26:27.407Z,999.16
2016-07-04T16:27:27.415Z,999.14
2016-07-04T16:28:27.436Z,999.12
2016-07-04T16:29:27.674Z,999.1
2016-07-04T16:30:27.464Z,999.11
2016-07-04T16:31:27.475Z,999.09
2016-07-04T16:32:27.488Z,999.08
2016-07-04T16:33:27.500Z,999.07
2016-07-04T16:34:27.723Z,999.03
2016-07-04T16:35:27.939Z,999.02
2016-07-04T16:37:27.563Z,999.04
2016-07-04T16:38:27.574Z,999.05
2016-07-04T16:39:27.587Z,999.07
2016-07-04T16:40:27.603Z,999.08
2016-07-04T16:41:27.618Z,999.06
2016-07-04T16:42:27.630Z,999.07
2016-07-04T16:44:27.674Z,999.02
2016-07-04T16:45:27.675Z,999.04
2016-07-04T16:46:27.684Z,999.01
2016-07-04T16:47:27.704Z,999.03
2016-07-04T16:48:27.708Z,999.03
2016-07-04T16:49:27.725Z,998.99
2016-07-04T16:50:27.962Z,999.02
2016-07-04T16:51:27.960Z,998.98
2016-07-04T16:52:27.767Z,998.99
2016-07-04T16:54:28.011Z,999
2016-07-04T16:55:27.805Z,998.96
2016-07-04T16:56:27.818Z,998.98
2016-07-04T16:57:27.824Z,999.03
2016-07-04T16:58:27.843Z,999
2016-07-04T17:00:28.064Z,999.02
2016-07-04T17:01:28.094Z,998.99
2016-07-04T17:03:27.927Z,998.94
2016-07-04T17:04:27.921Z,998.91
2016-07-04T17:05:27.955Z,998.89
2016-07-04T17:06:28.168Z,998.9
2016-07-04T17:07:27.959Z,998.94
2016-07-04T17:08:27.973Z,998.92
2016-07-04T17:09:27.991Z,998.94
2016-07-04T17:10:28.398Z,998.95
2016-07-04T17:11:28.211Z,999.01
2016-07-04T17:13:28.056Z,999.07
2016-07-04T17:14:28.054Z,999.04
2016-07-04T17:15:28.057Z,999.05
2016-07-04T17:16:28.103Z,999.1
2016-07-04T17:17:28.492Z,999.05
2016-07-04T17:18:28.314Z,999.05
2016-07-04T17:19:28.321Z,999.05
2016-07-04T17:21:28.159Z,999.08
2016-07-04T17:22:28.157Z,999.05
2016-07-04T17:23:28.375Z,999.03
2016-07-04T17:24:28.186Z,999.07
2016-07-04T17:25:28.195Z,999.05
2016-07-04T17:26:28.204Z,999.05
2016-07-04T17:27:28.217Z,999.06
2016-07-04T17:28:28.238Z,999.05
2016-07-04T17:29:28.246Z,999.07
2016-07-04T17:30:28.260Z,999.05
2016-07-04T17:31:28.287Z,999.04
2016-07-04T17:32:28.299Z,998.98
2016-07-04T17:33:28.322Z,998.98
2016-07-04T17:34:28.310Z,998.99
2016-07-04T17:35:28.333Z,998.96
2016-07-04T17:36:28.362Z,998.99
2016-07-04T17:37:28.360Z,998.96
2016-07-04T17:38:28.365Z,999
2016-07-04T17:40:28.401Z,998.96
2016-07-04T17:41:28.416Z,998.95
2016-07-04T17:42:28.419Z,998.94
2016-07-04T17:43:28.493Z,998.88
2016-07-04T17:44:28.653Z,998.88
2016-07-04T17:45:28.661Z,998.9
2016-07-04T17:46:28.677Z,998.86
2016-07-04T17:48:28.923Z,998.89
2016-07-04T17:49:28.515Z,998.92
2016-07-04T17:50:28.536Z,998.88
2016-07-04T17:52:28.561Z,998.87
2016-07-04T17:53:28.568Z,998.86
2016-07-04T17:54:28.579Z,998.84
2016-07-04T17:55:28.791Z,998.82
2016-07-04T17:57:28.860Z,998.81
2016-07-04T17:58:28.634Z,998.83
2016-07-04T17:59:28.637Z,998.81
2016-07-04T18:00:28.676Z,998.78
2016-07-04T18:01:28.666Z,998.78
2016-07-04T18:02:28.677Z,998.78
2016-07-04T18:03:28.893Z,998.82
2016-07-04T18:04:28.733Z,998.78
2016-07-04T18:06:28.957Z,998.74
2016-07-04T18:07:28.744Z,998.72
2016-07-04T18:08:28.755Z,998.69
2016-07-04T18:09:28.770Z,998.68
2016-07-04T18:10:28.792Z,998.66
2016-07-04T18:11:28.800Z,998.63
2016-07-04T18:12:29.016Z,998.7
2016-07-04T18:13:29.028Z,998.68
2016-07-04T18:14:28.839Z,998.67
2016-07-04T18:15:28.870Z,998.65
2016-07-04T18:16:28.866Z,998.62
2016-07-04T18:17:29.073Z,998.67
2016-07-04T18:18:29.495Z,998.66
2016-07-04T18:19:28.900Z,998.61
2016-07-04T18:20:28.925Z,998.61
2016-07-04T18:21:28.923Z,998.61
2016-07-04T18:23:28.963Z,998.6
2016-07-04T18:24:29.179Z,998.63
2016-07-04T18:25:28.975Z,998.62
2016-07-04T18:26:28.986Z,998.63
2016-07-04T18:27:29.406Z,998.63
2016-07-04T18:29:29.019Z,998.61
2016-07-04T18:30:29.031Z,998.63
2016-07-04T18:31:29.240Z,998.67
2016-07-04T18:32:29.055Z,998.63
2016-07-04T18:33:29.476Z,998.65
2016-07-04T18:34:29.078Z,998.62
2016-07-04T18:35:29.097Z,998.64
2016-07-04T18:36:29.122Z,998.59
2016-07-04T18:37:29.118Z,998.57
2016-07-04T18:38:29.131Z,998.6
2016-07-04T18:39:29.155Z,998.6
2016-07-04T18:40:29.147Z,998.56
2016-07-04T18:41:29.161Z,998.56
2016-07-04T18:42:29.374Z,998.56
2016-07-04T18:43:29.408Z,998.59
2016-07-04T18:44:29.402Z,998.54
2016-07-04T18:45:29.416Z,998.57
2016-07-04T18:46:29.223Z,998.56
2016-07-04T18:48:29.460Z,998.53
2016-07-04T18:49:29.258Z,998.53
2016-07-04T18:50:29.257Z,998.55
2016-07-04T18:51:29.274Z,998.55
2016-07-04T18:52:29.488Z,998.57
2016-07-04T18:53:29.290Z,998.54
2016-07-04T18:54:29.302Z,998.54
2016-07-04T18:55:29.312Z,998.54
2016-07-04T18:56:29.326Z,998.53
2016-07-04T18:57:29.393Z,998.53
2016-07-04T18:58:29.362Z,998.5
2016-07-04T18:59:29.379Z,998.49
2016-07-04T19:00:29.957Z,998.48
2016-07-04T19:01:29.758Z,998.48
2016-07-04T19:03:29.422Z,998.47
2016-07-04T19:04:30.168Z,998.42
2016-07-04T19:05:29.550Z,998.45
2016-07-04T19:06:29.659Z,998.48
2016-07-04T19:07:30.111Z,998.44
2016-07-04T19:08:30.470Z,998.47
2016-07-04T19:09:29.480Z,998.5
2016-07-04T19:10:29.676Z,998.51
2016-07-04T19:11:29.491Z,998.54
2016-07-04T19:12:29.516Z,998.53
2016-07-04T19:13:29.507Z,998.53
2016-07-04T19:14:29.721Z,998.51
2016-07-04T19:16:29.538Z,998.52
2016-07-04T19:17:29.549Z,998.49
2016-07-04T19:19:29.766Z,998.52
2016-07-04T19:20:29.980Z,998.53
2016-07-04T19:21:29.602Z,998.5
2016-07-04T19:22:29.811Z,998.53
2016-07-04T19:24:29.823Z,998.56
2016-07-04T19:25:29.650Z,998.54
2016-07-04T19:26:29.762Z,998.57
2016-07-04T19:27:29.701Z,998.55
2016-07-04T19:28:29.707Z,998.57
2016-07-04T19:29:29.666Z,998.56
2016-07-04T19:30:29.675Z,998.58
2016-07-04T19:31:29.700Z,998.58
2016-07-04T19:32:29.809Z,998.58
2016-07-04T19:33:29.716Z,998.54
2016-07-04T19:34:29.789Z,998.51
2016-07-04T19:35:29.921Z,998.51
2016-07-04T19:36:29.936Z,998.57
2016-07-04T19:37:29.792Z,998.57
2016-07-04T19:38:29.746Z,998.54
2016-07-04T19:39:29.759Z,998.56
2016-07-04T19:41:29.804Z,998.56
2016-07-04T19:44:29.813Z,998.57
2016-07-04T19:45:29.817Z,998.6
2016-07-04T19:46:29.836Z,998.54
2016-07-04T19:47:29.838Z,998.51
2016-07-04T19:48:29.840Z,998.53
2016-07-04T19:49:29.847Z,998.52
2016-07-04T19:50:30.062Z,998.54
2016-07-04T19:51:29.867Z,998.55
2016-07-04T19:52:29.883Z,998.5
2016-07-04T19:53:29.884Z,998.51
2016-07-04T19:54:29.894Z,998.51
2016-07-04T19:55:29.900Z,998.52
2016-07-04T19:56:29.909Z,998.51
2016-07-04T19:57:29.919Z,998.55
2016-07-04T19:58:29.926Z,998.52
2016-07-04T20:00:29.964Z,998.51
2016-07-04T20:01:29.969Z,998.53
2016-07-04T20:02:30.176Z,998.54
2016-07-04T20:03:30.169Z,998.51
2016-07-04T20:04:30.191Z,998.53
2016-07-04T20:05:29.989Z,998.54
2016-07-04T20:06:30.600Z,998.57
2016-07-04T20:07:30.414Z,998.55
2016-07-04T20:08:30.043Z,998.55
2016-07-04T20:09:30.025Z,998.52
2016-07-04T20:10:30.028Z,998.52
2016-07-04T20:11:30.248Z,998.56
2016-07-04T20:12:30.045Z,998.56
2016-07-04T20:13:30.054Z,998.57
2016-07-04T20:14:30.267Z,998.56
2016-07-04T20:15:30.474Z,998.6
2016-07-04T20:16:30.080Z,998.59
2016-07-04T20:17:30.698Z,998.61
2016-07-04T20:18:30.096Z,998.6
2016-07-04T20:19:30.103Z,998.6
2016-07-04T20:20:30.111Z,998.59
2016-07-04T20:21:30.119Z,998.58
2016-07-04T20:22:30.126Z,998.56
2016-07-04T20:23:30.139Z,998.64
2016-07-04T20:27:30.171Z,998.59
2016-07-04T20:28:30.207Z,998.62
2016-07-04T20:29:30.186Z,998.59
2016-07-04T20:32:30.404Z,998.64
2016-07-04T20:33:30.641Z,998.64
2016-07-04T20:34:30.232Z,998.64
2016-07-04T20:35:30.248Z,998.59
2016-07-04T20:36:30.245Z,998.63
2016-07-04T20:37:30.267Z,998.63
2016-07-04T20:38:30.272Z,998.61
2016-07-04T20:39:30.278Z,998.62
2016-07-04T20:40:30.287Z,998.6
2016-07-04T20:41:30.294Z,998.58
2016-07-04T20:42:30.301Z,998.55
2016-07-04T20:43:30.301Z,998.55
2016-07-04T20:44:30.315Z,998.55
2016-07-04T20:45:30.319Z,998.56
2016-07-04T20:46:30.326Z,998.55
2016-07-04T20:47:30.332Z,998.56
2016-07-04T20:48:30.337Z,998.55
2016-07-04T20:49:30.343Z,998.57
2016-07-04T20:50:30.354Z,998.55
2016-07-04T20:51:30.364Z,998.56
2016-07-04T20:52:30.366Z,998.58
2016-07-04T20:53:30.370Z,998.56
2016-07-04T20:54:30.381Z,998.58
2016-07-04T20:56:30.397Z,998.54
2016-07-04T20:58:30.603Z,998.56
2016-07-04T20:59:30.415Z,998.56
2016-07-04T21:00:30.434Z,998.6
2016-07-04T21:02:30.437Z,998.61
2016-07-04T21:04:30.452Z,998.61
2016-07-04T21:05:30.457Z,998.63
2016-07-04T21:06:30.472Z,998.6
2016-07-04T21:07:30.471Z,998.61
2016-07-04T21:08:30.482Z,998.67
2016-07-04T21:09:30.486Z,998.62
2016-07-04T21:11:30.505Z,998.64
2016-07-04T21:12:30.518Z,998.68
2016-07-04T21:13:30.521Z,998.69
2016-07-04T21:14:30.531Z,998.68
2016-07-04T21:15:30.534Z,998.68
2016-07-04T21:16:30.541Z,998.67
2016-07-04T21:17:30.555Z,998.68
2016-07-04T21:18:30.563Z,998.69
2016-07-04T21:19:30.567Z,998.66
2016-07-04T21:20:30.575Z,998.64
2016-07-04T21:21:30.577Z,998.64
2016-07-04T21:22:30.590Z,998.67
2016-07-04T21:23:30.600Z,998.69
2016-07-04T21:24:30.610Z,998.67
2016-07-04T21:25:30.612Z,998.68
2016-07-04T21:26:30.627Z,998.7
2016-07-04T21:27:30.623Z,998.72
2016-07-04T21:28:30.634Z,998.74
2016-07-04T21:29:30.639Z,998.72
2016-07-04T21:30:30.651Z,998.73
2016-07-04T21:31:30.664Z,998.76
2016-07-04T21:32:30.661Z,998.73
2016-07-04T21:33:30.656Z,998.74
2016-07-04T21:38:30.696Z,998.79
2016-07-04T21:39:30.706Z,998.78
2016-07-04T21:40:30.709Z,998.81
2016-07-04T21:41:30.716Z,998.77
2016-07-04T21:45:30.936Z,998.78
2016-07-04T21:46:30.761Z,998.76
2016-07-04T21:47:30.760Z,998.74
2016-07-04T21:48:30.757Z,998.72
2016-07-04T21:49:30.774Z,998.72
2016-07-04T21:50:30.781Z,998.74
2016-07-04T21:51:30.783Z,998.73
2016-07-04T21:52:30.786Z,998.76
2016-07-04T21:53:30.799Z,998.75
2016-07-04T21:54:30.806Z,998.78
2016-07-04T21:55:30.814Z,998.74
2016-07-04T21:56:31.216Z,998.74
2016-07-04T21:57:30.829Z,998.72
2016-07-04T21:58:30.827Z,998.71
2016-07-04T21:59:30.841Z,998.7
2016-07-04T22:00:31.062Z,998.69
2016-07-04T22:01:31.068Z,998.63
2016-07-04T22:02:31.070Z,998.6
2016-07-04T22:03:31.078Z,998.6
2016-07-04T22:04:30.864Z,998.6
2016-07-04T22:05:30.886Z,998.63
2016-07-04T22:06:30.890Z,998.65
2016-07-04T22:07:30.903Z,998.62
2016-07-04T22:08:30.906Z,998.66
2016-07-04T22:09:30.914Z,998.67
2016-07-04T22:10:30.920Z,998.69
2016-07-04T22:11:30.931Z,998.68
2016-07-04T22:12:30.922Z,998.69
2016-07-04T22:13:30.944Z,998.66
2016-07-04T22:14:30.950Z,998.68
2016-07-04T22:15:30.945Z,998.67
2016-07-04T22:16:30.965Z,998.64
2016-07-04T22:17:31.377Z,998.64
2016-07-04T22:18:30.981Z,998.57
2016-07-04T22:21:31.405Z,998.59
2016-07-04T22:22:31.002Z,998.61
2016-07-04T22:23:30.989Z,998.59
2016-07-04T22:24:30.998Z,998.6
2016-07-04T22:26:31.034Z,998.56
2016-07-04T22:29:31.033Z,998.58
2016-07-04T22:30:31.036Z,998.55
2016-07-04T22:32:31.049Z,998.57
2016-07-04T22:33:31.058Z,998.51
2016-07-04T22:34:31.070Z,998.52
2016-07-04T22:35:31.073Z,998.51
2016-07-04T22:36:31.085Z,998.49
2016-07-04T22:37:31.071Z,998.52
2016-07-04T22:38:31.303Z,998.49
2016-07-04T22:39:31.515Z,998.49
2016-07-04T22:40:31.122Z,998.5
2016-07-04T22:44:31.115Z,998.42
2016-07-04T22:45:31.128Z,998.42
2016-07-04T22:46:31.131Z,998.45
2016-07-04T22:47:31.341Z,998.44
2016-07-04T22:48:31.544Z,998.43
2016-07-04T22:49:31.148Z,998.4
2016-07-04T22:50:31.153Z,998.39
2016-07-04T22:51:31.157Z,998.39
2016-07-04T22:52:31.162Z,998.39
2016-07-04T22:53:31.168Z,998.4
2016-07-04T22:54:31.176Z,998.38
2016-07-04T22:55:31.179Z,998.37
2016-07-04T22:56:31.188Z,998.35
2016-07-04T22:57:31.197Z,998.31
2016-07-04T22:58:31.200Z,998.32
2016-07-04T22:59:31.204Z,998.29
2016-07-04T23:00:31.214Z,998.29
2016-07-04T23:01:31.223Z,998.27
2016-07-04T23:02:31.219Z,998.26
2016-07-04T23:03:31.229Z,998.24
2016-07-04T23:04:31.237Z,998.23
2016-07-04T23:05:31.238Z,998.25
2016-07-04T23:06:31.246Z,998.24
2016-07-04T23:07:31.260Z,998.23
2016-07-04T23:08:31.260Z,998.22
2016-07-04T23:09:31.267Z,998.22
2016-07-04T23:10:31.269Z,998.27
2016-07-04T23:11:31.906Z,998.25
2016-07-04T23:12:31.298Z,998.27
2016-07-04T23:13:31.512Z,998.26
2016-07-04T23:15:31.930Z,998.3
2016-07-04T23:17:31.306Z,998.26
2016-07-04T23:18:31.715Z,998.3
2016-07-04T23:19:31.920Z,998.26
2016-07-04T23:20:31.728Z,998.3
2016-07-04T23:21:31.734Z,998.27
2016-07-04T23:22:31.536Z,998.28
2016-07-04T23:23:31.338Z,998.3
2016-07-04T23:24:31.343Z,998.29
2016-07-04T23:25:31.352Z,998.28
2016-07-04T23:26:31.353Z,998.29
2016-07-04T23:27:31.369Z,998.31
2016-07-04T23:28:31.369Z,998.27
2016-07-04T23:29:31.579Z,998.24
2016-07-04T23:30:31.382Z,998.23
2016-07-04T23:31:31.586Z,998.2
2016-07-04T23:32:31.594Z,998.18
2016-07-04T23:33:31.602Z,998.17
2016-07-04T23:34:31.405Z,998.16
2016-07-04T23:35:31.414Z,998.11
2016-07-04T23:36:31.459Z,998.12
2016-07-04T23:37:31.422Z,998.05
2016-07-04T23:38:31.427Z,998.04
2016-07-04T23:39:31.439Z,998.06
2016-07-04T23:40:31.446Z,998.02
2016-07-04T23:41:31.458Z,998.05
2016-07-04T23:42:31.468Z,998.02
2016-07-04T23:43:31.471Z,998.05
2016-07-04T23:45:31.467Z,998.03
2016-07-04T23:46:31.472Z,998.05
2016-07-04T23:47:31.478Z,998.03
2016-07-04T23:48:31.486Z,998.05
2016-07-04T23:49:31.500Z,998.04
2016-07-04T23:50:31.905Z,998.05
2016-07-04T23:51:31.709Z,998.06
2016-07-04T23:52:31.715Z,998.03
2016-07-04T23:53:31.512Z,997.98
2016-07-04T23:54:31.518Z,998
2016-07-04T23:55:31.527Z,998
2016-07-04T23:56:31.537Z,997.97
2016-07-04T23:57:31.538Z,997.98
2016-07-04T23:58:31.546Z,997.96
2016-07-04T23:59:31.553Z,997.93
